Terminal Aerodrome Forecast
Issued by NWS

Home | Current Version | Previous Version | Text Only | Print | Product List | Glossary On
Versions: 1 2 3 4 5 6 7 8 9 10 11 12 13 14 15 16 17 18 19 20 21 22 23 24
000
FTAK31 PAJN 301418 AAA
TAFAYA
TAF AMD
PAYA 301418Z 3014/3112 00000KT P6SM FEW003 SCT025 OVC060
      TEMPO 3014/3016 3SM BR BKN008 OVC010
     FM301600 VRB02KT P6SM BKN008 OVC015
     FM301900 27005KT P6SM VCSH SCT008 BKN015 OVC025
     FM310600 00000KT P6SM BKN008 OVC015
     FM310900 00000KT 3SM BR BKN004 OVC015
      AMD LTD TO CLD VIS AND WIND 3101/3109=

USA.gov is the U.S. government's official web portal to all federal, state and local government web resources and services.